sensor_id;sensor_type;location;lat;lon;timestamp;temperature;humidity
32536;DHT22;18974;50.838;4.636;2024-03-22T00:01:43;13.40;99.90
32536;DHT22;18974;50.838;4.636;2024-03-22T00:04:08;13.40;99.90
32536;DHT22;18974;50.838;4.636;2024-03-22T00:06:34;13.50;99.90
32536;DHT22;18974;50.838;4.636;2024-03-22T00:09:00;13.50;99.90
32536;DHT22;18974;50.838;4.636;2024-03-22T00:11:25;13.50;99.90
32536;DHT22;18974;50.838;4.636;2024-03-22T00:13:51;13.50;99.90
32536;DHT22;18974;50.838;4.636;2024-03-22T00:16:17;13.60;99.90
32536;DHT22;18974;50.838;4.636;2024-03-22T00:18:42;13.70;99.90
32536;DHT22;18974;50.838;4.636;2024-03-22T00:21:08;13.70;99.90
32536;DHT22;18974;50.838;4.636;2024-03-22T00:23:34;13.70;99.90
32536;DHT22;18974;50.838;4.636;2024-03-22T00:25:59;13.70;99.90
32536;DHT22;18974;50.838;4.636;2024-03-22T00:28:25;13.70;99.90
32536;DHT22;18974;50.838;4.636;2024-03-22T00:30:51;13.60;99.90
32536;DHT22;18974;50.838;4.636;2024-03-22T00:33:16;13.60;99.90
32536;DHT22;18974;50.838;4.636;2024-03-22T00:35:42;13.60;99.90
32536;DHT22;18974;50.838;4.636;2024-03-22T00:38:08;13.70;99.90
32536;DHT22;18974;50.838;4.636;2024-03-22T00:40:33;13.70;99.90
32536;DHT22;18974;50.838;4.636;2024-03-22T00:42:59;13.70;99.90
32536;DHT22;18974;50.838;4.636;2024-03-22T00:45:25;13.60;99.90
32536;DHT22;18974;50.838;4.636;2024-03-22T00:47:51;13.60;99.90
32536;DHT22;18974;50.838;4.636;2024-03-22T00:50:16;13.60;99.90
32536;DHT22;18974;50.838;4.636;2024-03-22T00:52:42;13.60;99.90
32536;DHT22;18974;50.838;4.636;2024-03-22T00:55:08;13.60;99.90
32536;DHT22;18974;50.838;4.636;2024-03-22T00:57:33;13.70;99.90
32536;DHT22;18974;50.838;4.636;2024-03-22T00:59:59;13.60;99.90
32536;DHT22;18974;50.838;4.636;2024-03-22T01:02:25;13.80;99.90
32536;DHT22;18974;50.838;4.636;2024-03-22T01:04:51;13.80;99.90
32536;DHT22;18974;50.838;4.636;2024-03-22T01:07:16;13.80;99.90
32536;DHT22;18974;50.838;4.636;2024-03-22T01:09:42;13.80;99.90
32536;DHT22;18974;50.838;4.636;2024-03-22T01:12:10;13.80;99.90
32536;DHT22;18974;50.838;4.636;2024-03-22T01:14:35;13.80;99.90
32536;DHT22;18974;50.838;4.636;2024-03-22T01:17:01;13.80;99.90
32536;DHT22;18974;50.838;4.636;2024-03-22T01:19:27;13.80;99.90
32536;DHT22;18974;50.838;4.636;2024-03-22T01:21:52;13.70;99.90
32536;DHT22;18974;50.838;4.636;2024-03-22T01:24:18;13.70;99.90
32536;DHT22;18974;50.838;4.636;2024-03-22T01:26:44;13.60;99.90
32536;DHT22;18974;50.838;4.636;2024-03-22T01:29:10;13.50;99.90
32536;DHT22;18974;50.838;4.636;2024-03-22T01:31:35;13.50;99.90
32536;DHT22;18974;50.838;4.636;2024-03-22T01:34:01;13.50;99.90
32536;DHT22;18974;50.838;4.636;2024-03-22T01:36:26;13.50;99.90
32536;DHT22;18974;50.838;4.636;2024-03-22T01:38:52;13.40;99.90
32536;DHT22;18974;50.838;4.636;2024-03-22T01:41:18;13.30;99.90
32536;DHT22;18974;50.838;4.636;2024-03-22T01:43:43;13.30;99.90
32536;DHT22;18974;50.838;4.636;2024-03-22T01:46:09;13.40;99.90
32536;DHT22;18974;50.838;4.636;2024-03-22T01:48:35;13.30;99.90
32536;DHT22;18974;50.838;4.636;2024-03-22T01:51:02;13.20;99.90
32536;DHT22;18974;50.838;4.636;2024-03-22T01:53:29;13.20;99.90
32536;DHT22;18974;50.838;4.636;2024-03-22T01:55:54;13.20;99.90
32536;DHT22;18974;50.838;4.636;2024-03-22T01:58:21;13.00;99.90
32536;DHT22;18974;50.838;4.636;2024-03-22T02:00:47;13.00;99.90
32536;DHT22;18974;50.838;4.636;2024-03-22T02:03:13;12.90;99.90
32536;DHT22;18974;50.838;4.636;2024-03-22T02:05:38;12.80;99.90
32536;DHT22;18974;50.838;4.636;2024-03-22T02:08:05;12.90;99.90
32536;DHT22;18974;50.838;4.636;2024-03-22T02:10:31;12.90;99.90
32536;DHT22;18974;50.838;4.636;2024-03-22T02:12:56;12.70;99.90
32536;DHT22;18974;50.838;4.636;2024-03-22T02:15:22;12.70;99.90
32536;DHT22;18974;50.838;4.636;2024-03-22T02:17:48;12.60;99.90
32536;DHT22;18974;50.838;4.636;2024-03-22T02:20:13;12.60;99.90
32536;DHT22;18974;50.838;4.636;2024-03-22T02:22:39;12.50;99.90
32536;DHT22;18974;50.838;4.636;2024-03-22T02:25:05;12.40;99.90
32536;DHT22;18974;50.838;4.636;2024-03-22T02:27:32;12.50;99.90
32536;DHT22;18974;50.838;4.636;2024-03-22T02:29:58;12.40;99.90
32536;DHT22;18974;50.838;4.636;2024-03-22T02:32:24;12.40;99.90
32536;DHT22;18974;50.838;4.636;2024-03-22T02:34:49;12.40;99.90
32536;DHT22;18974;50.838;4.636;2024-03-22T02:37:15;12.40;99.90
32536;DHT22;18974;50.838;4.636;2024-03-22T02:39:41;12.40;99.90
32536;DHT22;18974;50.838;4.636;2024-03-22T02:42:07;12.40;99.90
32536;DHT22;18974;50.838;4.636;2024-03-22T02:44:32;12.50;99.90
32536;DHT22;18974;50.838;4.636;2024-03-22T02:46:58;12.40;99.90
32536;DHT22;18974;50.838;4.636;2024-03-22T02:49:25;12.50;99.90
32536;DHT22;18974;50.838;4.636;2024-03-22T02:51:51;12.50;99.90
32536;DHT22;18974;50.838;4.636;2024-03-22T02:54:17;12.40;99.90
32536;DHT22;18974;50.838;4.636;2024-03-22T02:56:42;12.50;99.90
32536;DHT22;18974;50.838;4.636;2024-03-22T02:59:08;12.70;99.90
32536;DHT22;18974;50.838;4.636;2024-03-22T03:01:34;12.70;99.90
32536;DHT22;18974;50.838;4.636;2024-03-22T03:03:59;12.70;99.90
32536;DHT22;18974;50.838;4.636;2024-03-22T03:06:25;12.80;99.90
32536;DHT22;18974;50.838;4.636;2024-03-22T03:08:51;12.70;99.90
32536;DHT22;18974;50.838;4.636;2024-03-22T03:11:16;12.70;99.90
32536;DHT22;18974;50.838;4.636;2024-03-22T03:13:42;12.70;99.90
32536;DHT22;18974;50.838;4.636;2024-03-22T03:16:08;12.80;99.90
32536;DHT22;18974;50.838;4.636;2024-03-22T03:18:33;12.80;99.90
32536;DHT22;18974;50.838;4.636;2024-03-22T03:20:59;12.90;99.90
32536;DHT22;18974;50.838;4.636;2024-03-22T03:23:25;12.90;99.90
32536;DHT22;18974;50.838;4.636;2024-03-22T03:25:50;12.90;99.90
32536;DHT22;18974;50.838;4.636;2024-03-22T03:28:16;12.80;99.90
32536;DHT22;18974;50.838;4.636;2024-03-22T03:30:43;12.70;99.90
32536;DHT22;18974;50.838;4.636;2024-03-22T03:33:09;12.70;99.90
32536;DHT22;18974;50.838;4.636;2024-03-22T03:35:35;12.80;99.90
32536;DHT22;18974;50.838;4.636;2024-03-22T03:38:00;12.80;99.90
32536;DHT22;18974;50.838;4.636;2024-03-22T03:40:26;12.80;99.90
32536;DHT22;18974;50.838;4.636;2024-03-22T03:42:53;12.80;99.90
32536;DHT22;18974;50.838;4.636;2024-03-22T03:45:19;12.90;99.90
32536;DHT22;18974;50.838;4.636;2024-03-22T03:47:45;12.90;99.90
32536;DHT22;18974;50.838;4.636;2024-03-22T03:50:11;12.90;99.90
32536;DHT22;18974;50.838;4.636;2024-03-22T03:52:37;12.80;99.90
32536;DHT22;18974;50.838;4.636;2024-03-22T03:55:03;12.90;99.90
32536;DHT22;18974;50.838;4.636;2024-03-22T03:57:29;12.70;99.90
32536;DHT22;18974;50.838;4.636;2024-03-22T03:59:55;12.70;99.90
32536;DHT22;18974;50.838;4.636;2024-03-22T04:02:20;12.80;99.90
32536;DHT22;18974;50.838;4.636;2024-03-22T04:04:46;12.80;99.90
32536;DHT22;18974;50.838;4.636;2024-03-22T04:07:12;12.80;99.90
32536;DHT22;18974;50.838;4.636;2024-03-22T04:09:38;12.90;99.90
32536;DHT22;18974;50.838;4.636;2024-03-22T04:12:03;12.80;99.90
32536;DHT22;18974;50.838;4.636;2024-03-22T04:14:29;12.80;99.90
32536;DHT22;18974;50.838;4.636;2024-03-22T04:16:55;12.80;99.90
32536;DHT22;18974;50.838;4.636;2024-03-22T04:19:21;12.90;99.90
32536;DHT22;18974;50.838;4.636;2024-03-22T04:21:49;13.00;99.90
32536;DHT22;18974;50.838;4.636;2024-03-22T04:24:15;13.00;99.90
32536;DHT22;18974;50.838;4.636;2024-03-22T04:26:40;13.00;99.90
32536;DHT22;18974;50.838;4.636;2024-03-22T04:29:06;12.90;99.90
32536;DHT22;18974;50.838;4.636;2024-03-22T04:31:32;12.90;99.90
32536;DHT22;18974;50.838;4.636;2024-03-22T04:33:57;12.80;99.90
32536;DHT22;18974;50.838;4.636;2024-03-22T04:36:23;12.70;99.90
32536;DHT22;18974;50.838;4.636;2024-03-22T04:38:49;12.80;99.90
32536;DHT22;18974;50.838;4.636;2024-03-22T04:41:14;12.70;99.90
32536;DHT22;18974;50.838;4.636;2024-03-22T04:43:40;12.70;99.90
32536;DHT22;18974;50.838;4.636;2024-03-22T04:46:06;12.60;99.90
32536;DHT22;18974;50.838;4.636;2024-03-22T04:48:31;12.60;99.90
32536;DHT22;18974;50.838;4.636;2024-03-22T04:50:57;12.80;99.90
32536;DHT22;18974;50.838;4.636;2024-03-22T04:53:23;12.70;99.90
32536;DHT22;18974;50.838;4.636;2024-03-22T04:55:49;12.80;99.90
32536;DHT22;18974;50.838;4.636;2024-03-22T04:58:19;12.80;99.90
32536;DHT22;18974;50.838;4.636;2024-03-22T05:00:45;12.80;99.90
32536;DHT22;18974;50.838;4.636;2024-03-22T05:03:11;12.80;99.90
32536;DHT22;18974;50.838;4.636;2024-03-22T05:05:38;12.80;99.90
32536;DHT22;18974;50.838;4.636;2024-03-22T05:08:05;12.70;99.90
32536;DHT22;18974;50.838;4.636;2024-03-22T05:10:31;12.60;99.90
32536;DHT22;18974;50.838;4.636;2024-03-22T05:12:57;12.70;99.90
32536;DHT22;18974;50.838;4.636;2024-03-22T05:15:23;12.60;99.90
32536;DHT22;18974;50.838;4.636;2024-03-22T05:17:52;12.70;99.90
32536;DHT22;18974;50.838;4.636;2024-03-22T05:20:19;12.90;99.90
32536;DHT22;18974;50.838;4.636;2024-03-22T05:22:47;12.80;99.90
32536;DHT22;18974;50.838;4.636;2024-03-22T05:25:12;12.90;99.90
32536;DHT22;18974;50.838;4.636;2024-03-22T05:27:40;12.80;99.90
32536;DHT22;18974;50.838;4.636;2024-03-22T05:30:08;12.70;99.90
32536;DHT22;18974;50.838;4.636;2024-03-22T05:32:34;12.80;99.90
32536;DHT22;18974;50.838;4.636;2024-03-22T05:34:59;12.80;99.90
32536;DHT22;18974;50.838;4.636;2024-03-22T05:37:25;12.70;99.90
32536;DHT22;18974;50.838;4.636;2024-03-22T05:39:50;12.70;99.90
32536;DHT22;18974;50.838;4.636;2024-03-22T05:42:16;12.70;99.90
32536;DHT22;18974;50.838;4.636;2024-03-22T05:44:44;12.70;99.90
32536;DHT22;18974;50.838;4.636;2024-03-22T05:47:09;12.70;99.90
32536;DHT22;18974;50.838;4.636;2024-03-22T05:49:35;12.70;99.90
32536;DHT22;18974;50.838;4.636;2024-03-22T05:52:01;12.70;99.90
32536;DHT22;18974;50.838;4.636;2024-03-22T05:54:26;12.60;99.90
32536;DHT22;18974;50.838;4.636;2024-03-22T05:56:52;12.70;99.90
32536;DHT22;18974;50.838;4.636;2024-03-22T05:59:18;12.60;99.90
32536;DHT22;18974;50.838;4.636;2024-03-22T06:01:43;12.50;99.90
32536;DHT22;18974;50.838;4.636;2024-03-22T06:04:09;12.50;99.90
32536;DHT22;18974;50.838;4.636;2024-03-22T06:06:35;12.70;99.90
32536;DHT22;18974;50.838;4.636;2024-03-22T06:09:01;12.80;99.90
32536;DHT22;18974;50.838;4.636;2024-03-22T06:11:30;12.80;99.90
32536;DHT22;18974;50.838;4.636;2024-03-22T06:13:56;12.80;99.90
32536;DHT22;18974;50.838;4.636;2024-03-22T06:16:21;12.80;99.90
32536;DHT22;18974;50.838;4.636;2024-03-22T06:18:47;12.70;99.90
32536;DHT22;18974;50.838;4.636;2024-03-22T06:21:13;12.60;99.90
32536;DHT22;18974;50.838;4.636;2024-03-22T06:23:50;12.60;99.90
32536;DHT22;18974;50.838;4.636;2024-03-22T06:26:16;12.60;99.90
32536;DHT22;18974;50.838;4.636;2024-03-22T06:28:41;12.60;99.90
32536;DHT22;18974;50.838;4.636;2024-03-22T06:31:07;12.60;99.90
32536;DHT22;18974;50.838;4.636;2024-03-22T06:33:33;12.70;99.90
32536;DHT22;18974;50.838;4.636;2024-03-22T06:35:59;12.70;99.90
32536;DHT22;18974;50.838;4.636;2024-03-22T06:38:25;12.60;99.90
32536;DHT22;18974;50.838;4.636;2024-03-22T06:40:51;12.60;99.90
32536;DHT22;18974;50.838;4.636;2024-03-22T06:43:17;12.50;99.90
32536;DHT22;18974;50.838;4.636;2024-03-22T06:45:42;12.30;99.90
32536;DHT22;18974;50.838;4.636;2024-03-22T06:48:08;12.30;99.90
32536;DHT22;18974;50.838;4.636;2024-03-22T06:50:34;12.40;99.90
32536;DHT22;18974;50.838;4.636;2024-03-22T06:52:59;12.40;99.90
32536;DHT22;18974;50.838;4.636;2024-03-22T06:55:25;12.40;99.90
32536;DHT22;18974;50.838;4.636;2024-03-22T06:57:51;12.40;99.90
32536;DHT22;18974;50.838;4.636;2024-03-22T07:00:18;12.40;99.90
32536;DHT22;18974;50.838;4.636;2024-03-22T07:02:44;12.40;99.90
32536;DHT22;18974;50.838;4.636;2024-03-22T07:05:10;12.50;99.90
32536;DHT22;18974;50.838;4.636;2024-03-22T07:07:37;12.70;99.90
32536;DHT22;18974;50.838;4.636;2024-03-22T07:10:04;12.70;99.90
32536;DHT22;18974;50.838;4.636;2024-03-22T07:12:34;12.80;99.90
32536;DHT22;18974;50.838;4.636;2024-03-22T07:15:00;12.80;99.90
32536;DHT22;18974;50.838;4.636;2024-03-22T07:17:26;12.80;99.90
32536;DHT22;18974;50.838;4.636;2024-03-22T07:19:52;12.90;99.90
32536;DHT22;18974;50.838;4.636;2024-03-22T07:22:18;12.70;99.90
32536;DHT22;18974;50.838;4.636;2024-03-22T07:24:44;12.60;99.90
32536;DHT22;18974;50.838;4.636;2024-03-22T07:27:10;12.40;99.90
32536;DHT22;18974;50.838;4.636;2024-03-22T07:29:36;12.40;99.90
32536;DHT22;18974;50.838;4.636;2024-03-22T07:32:02;12.30;99.90
32536;DHT22;18974;50.838;4.636;2024-03-22T07:34:28;12.20;99.90
32536;DHT22;18974;50.838;4.636;2024-03-22T07:36:54;12.20;99.90
32536;DHT22;18974;50.838;4.636;2024-03-22T07:39:20;12.20;99.90
32536;DHT22;18974;50.838;4.636;2024-03-22T07:41:45;12.10;99.90
32536;DHT22;18974;50.838;4.636;2024-03-22T07:44:11;12.20;99.90
32536;DHT22;18974;50.838;4.636;2024-03-22T07:46:37;12.20;99.90
32536;DHT22;18974;50.838;4.636;2024-03-22T07:49:02;12.10;99.90
32536;DHT22;18974;50.838;4.636;2024-03-22T07:51:30;12.10;99.90
32536;DHT22;18974;50.838;4.636;2024-03-22T07:53:55;12.10;99.90
32536;DHT22;18974;50.838;4.636;2024-03-22T07:56:21;12.00;99.90
32536;DHT22;18974;50.838;4.636;2024-03-22T07:58:47;12.00;99.90
32536;DHT22;18974;50.838;4.636;2024-03-22T08:01:13;12.20;99.90
32536;DHT22;18974;50.838;4.636;2024-03-22T08:03:38;12.30;99.90
32536;DHT22;18974;50.838;4.636;2024-03-22T08:06:04;12.30;99.90
32536;DHT22;18974;50.838;4.636;2024-03-22T08:08:30;12.60;99.90
32536;DHT22;18974;50.838;4.636;2024-03-22T08:10:56;12.70;99.90
32536;DHT22;18974;50.838;4.636;2024-03-22T08:13:21;12.90;99.90
32536;DHT22;18974;50.838;4.636;2024-03-22T08:15:47;12.80;99.90
32536;DHT22;18974;50.838;4.636;2024-03-22T08:18:13;12.60;99.90
32536;DHT22;18974;50.838;4.636;2024-03-22T08:20:38;12.70;99.90
32536;DHT22;18974;50.838;4.636;2024-03-22T08:23:05;12.70;99.90
32536;DHT22;18974;50.838;4.636;2024-03-22T08:25:31;12.80;99.90
32536;DHT22;18974;50.838;4.636;2024-03-22T08:27:57;13.00;99.90
32536;DHT22;18974;50.838;4.636;2024-03-22T08:30:24;13.00;99.90
32536;DHT22;18974;50.838;4.636;2024-03-22T08:32:51;12.90;99.90
32536;DHT22;18974;50.838;4.636;2024-03-22T08:35:17;12.90;99.90
32536;DHT22;18974;50.838;4.636;2024-03-22T08:37:42;12.70;99.90
32536;DHT22;18974;50.838;4.636;2024-03-22T08:40:08;12.90;99.90
32536;DHT22;18974;50.838;4.636;2024-03-22T08:42:35;12.90;99.90
32536;DHT22;18974;50.838;4.636;2024-03-22T08:45:01;12.80;99.90
32536;DHT22;18974;50.838;4.636;2024-03-22T08:47:27;12.80;99.90
32536;DHT22;18974;50.838;4.636;2024-03-22T08:49:52;12.90;99.90
32536;DHT22;18974;50.838;4.636;2024-03-22T08:52:18;13.00;99.90
32536;DHT22;18974;50.838;4.636;2024-03-22T08:54:44;12.90;99.90
32536;DHT22;18974;50.838;4.636;2024-03-22T08:57:09;13.00;99.90
32536;DHT22;18974;50.838;4.636;2024-03-22T08:59:35;13.00;99.90
32536;DHT22;18974;50.838;4.636;2024-03-22T09:02:03;13.20;99.90
32536;DHT22;18974;50.838;4.636;2024-03-22T09:04:28;13.10;99.90
32536;DHT22;18974;50.838;4.636;2024-03-22T09:06:54;13.20;99.90
32536;DHT22;18974;50.838;4.636;2024-03-22T09:09:20;13.20;99.90
32536;DHT22;18974;50.838;4.636;2024-03-22T09:11:46;13.40;99.90
32536;DHT22;18974;50.838;4.636;2024-03-22T09:14:11;13.40;99.90
32536;DHT22;18974;50.838;4.636;2024-03-22T09:16:37;13.60;99.90
32536;DHT22;18974;50.838;4.636;2024-03-22T09:19:03;13.70;99.90
32536;DHT22;18974;50.838;4.636;2024-03-22T09:21:28;13.80;99.90
32536;DHT22;18974;50.838;4.636;2024-03-22T09:23:56;14.00;99.90
32536;DHT22;18974;50.838;4.636;2024-03-22T09:26:22;14.20;99.90
32536;DHT22;18974;50.838;4.636;2024-03-22T09:28:48;14.30;99.90
32536;DHT22;18974;50.838;4.636;2024-03-22T09:31:15;13.90;99.90
32536;DHT22;18974;50.838;4.636;2024-03-22T09:33:42;13.90;99.90
32536;DHT22;18974;50.838;4.636;2024-03-22T09:36:08;14.00;99.90
32536;DHT22;18974;50.838;4.636;2024-03-22T09:38:33;13.90;99.90
32536;DHT22;18974;50.838;4.636;2024-03-22T09:40:59;13.80;99.90
32536;DHT22;18974;50.838;4.636;2024-03-22T09:43:27;14.00;99.90
32536;DHT22;18974;50.838;4.636;2024-03-22T09:45:53;13.90;99.90
32536;DHT22;18974;50.838;4.636;2024-03-22T09:48:19;13.90;99.90
32536;DHT22;18974;50.838;4.636;2024-03-22T09:50:49;14.10;99.90
32536;DHT22;18974;50.838;4.636;2024-03-22T09:53:19;14.30;99.90
32536;DHT22;18974;50.838;4.636;2024-03-22T09:55:46;14.40;99.90
32536;DHT22;18974;50.838;4.636;2024-03-22T09:58:12;14.50;99.90
32536;DHT22;18974;50.838;4.636;2024-03-22T10:00:38;14.70;99.90
32536;DHT22;18974;50.838;4.636;2024-03-22T10:03:04;14.60;99.90
32536;DHT22;18974;50.838;4.636;2024-03-22T10:05:31;14.70;99.90
32536;DHT22;18974;50.838;4.636;2024-03-22T10:07:56;14.50;99.90
32536;DHT22;18974;50.838;4.636;2024-03-22T10:10:23;14.20;99.90
32536;DHT22;18974;50.838;4.636;2024-03-22T10:12:49;14.00;99.90
32536;DHT22;18974;50.838;4.636;2024-03-22T10:15:14;14.20;99.90
32536;DHT22;18974;50.838;4.636;2024-03-22T10:17:41;14.10;99.90
32536;DHT22;18974;50.838;4.636;2024-03-22T10:20:07;14.20;99.90
32536;DHT22;18974;50.838;4.636;2024-03-22T10:22:49;14.40;99.90
32536;DHT22;18974;50.838;4.636;2024-03-22T10:25:20;14.40;99.90
32536;DHT22;18974;50.838;4.636;2024-03-22T10:27:45;14.50;99.90
32536;DHT22;18974;50.838;4.636;2024-03-22T10:30:12;14.70;99.90
32536;DHT22;18974;50.838;4.636;2024-03-22T10:32:40;14.70;99.90
32536;DHT22;18974;50.838;4.636;2024-03-22T10:35:07;14.60;99.90
32536;DHT22;18974;50.838;4.636;2024-03-22T10:37:34;14.40;99.90
32536;DHT22;18974;50.838;4.636;2024-03-22T10:40:03;14.40;99.90
32536;DHT22;18974;50.838;4.636;2024-03-22T10:42:36;14.60;99.90
32536;DHT22;18974;50.838;4.636;2024-03-22T10:45:05;14.40;99.90
32536;DHT22;18974;50.838;4.636;2024-03-22T10:47:32;14.50;99.90
32536;DHT22;18974;50.838;4.636;2024-03-22T10:50:07;14.60;99.90
32536;DHT22;18974;50.838;4.636;2024-03-22T10:52:38;14.70;99.90
32536;DHT22;18974;50.838;4.636;2024-03-22T10:55:07;14.70;99.90
32536;DHT22;18974;50.838;4.636;2024-03-22T10:57:34;14.90;99.90
32536;DHT22;18974;50.838;4.636;2024-03-22T11:00:09;14.70;99.90
32536;DHT22;18974;50.838;4.636;2024-03-22T11:02:36;14.60;99.90
32536;DHT22;18974;50.838;4.636;2024-03-22T11:05:06;14.70;99.90
32536;DHT22;18974;50.838;4.636;2024-03-22T11:07:32;14.90;99.90
32536;DHT22;18974;50.838;4.636;2024-03-22T11:10:01;15.10;99.90
32536;DHT22;18974;50.838;4.636;2024-03-22T11:12:30;15.50;99.90
32536;DHT22;18974;50.838;4.636;2024-03-22T11:14:59;15.50;99.90
32536;DHT22;18974;50.838;4.636;2024-03-22T11:17:24;15.70;99.90
32536;DHT22;18974;50.838;4.636;2024-03-22T11:19:51;15.80;99.90
32536;DHT22;18974;50.838;4.636;2024-03-22T11:22:17;16.10;99.90
32536;DHT22;18974;50.838;4.636;2024-03-22T11:24:43;16.00;99.90
32536;DHT22;18974;50.838;4.636;2024-03-22T11:27:10;16.00;99.90
32536;DHT22;18974;50.838;4.636;2024-03-22T11:29:37;16.10;99.90
32536;DHT22;18974;50.838;4.636;2024-03-22T11:32:06;16.10;99.90
32536;DHT22;18974;50.838;4.636;2024-03-22T11:34:35;16.00;99.90
32536;DHT22;18974;50.838;4.636;2024-03-22T11:37:01;16.20;99.90
32536;DHT22;18974;50.838;4.636;2024-03-22T11:39:26;16.30;99.90
32536;DHT22;18974;50.838;4.636;2024-03-22T11:41:52;16.30;99.90
32536;DHT22;18974;50.838;4.636;2024-03-22T11:44:18;16.00;99.90
32536;DHT22;18974;50.838;4.636;2024-03-22T11:46:45;15.80;99.90
32536;DHT22;18974;50.838;4.636;2024-03-22T11:49:11;15.80;99.90
32536;DHT22;18974;50.838;4.636;2024-03-22T11:51:38;15.80;99.90
32536;DHT22;18974;50.838;4.636;2024-03-22T11:54:05;15.80;99.90
32536;DHT22;18974;50.838;4.636;2024-03-22T11:56:35;15.70;99.90
32536;DHT22;18974;50.838;4.636;2024-03-22T11:59:01;15.50;99.90
32536;DHT22;18974;50.838;4.636;2024-03-22T12:01:29;15.30;99.90
32536;DHT22;18974;50.838;4.636;2024-03-22T12:03:54;15.00;99.90
32536;DHT22;18974;50.838;4.636;2024-03-22T12:06:21;14.90;99.90
32536;DHT22;18974;50.838;4.636;2024-03-22T12:08:47;15.10;99.90
32536;DHT22;18974;50.838;4.636;2024-03-22T12:11:13;15.20;99.90
32536;DHT22;18974;50.838;4.636;2024-03-22T12:13:39;15.40;99.90
32536;DHT22;18974;50.838;4.636;2024-03-22T12:16:05;15.50;99.90
32536;DHT22;18974;50.838;4.636;2024-03-22T12:18:32;15.70;99.90
32536;DHT22;18974;50.838;4.636;2024-03-22T12:20:58;15.60;99.90
32536;DHT22;18974;50.838;4.636;2024-03-22T12:23:24;15.40;99.90
32536;DHT22;18974;50.838;4.636;2024-03-22T12:25:50;15.10;99.90
32536;DHT22;18974;50.838;4.636;2024-03-22T12:28:17;15.10;99.90
32536;DHT22;18974;50.838;4.636;2024-03-22T12:30:43;15.10;99.90
32536;DHT22;18974;50.838;4.636;2024-03-22T12:33:09;15.20;99.90
32536;DHT22;18974;50.838;4.636;2024-03-22T12:38:03;15.20;99.90
32536;DHT22;18974;50.838;4.636;2024-03-22T12:40:29;15.20;99.90
32536;DHT22;18974;50.838;4.636;2024-03-22T12:42:55;15.20;99.90
32536;DHT22;18974;50.838;4.636;2024-03-22T12:45:21;15.30;99.90
32536;DHT22;18974;50.838;4.636;2024-03-22T12:47:47;15.30;99.90
32536;DHT22;18974;50.838;4.636;2024-03-22T12:50:13;15.30;99.90
32536;DHT22;18974;50.838;4.636;2024-03-22T12:52:39;15.20;99.90
32536;DHT22;18974;50.838;4.636;2024-03-22T12:55:05;15.00;99.90
32536;DHT22;18974;50.838;4.636;2024-03-22T12:57:32;15.00;99.90
32536;DHT22;18974;50.838;4.636;2024-03-22T12:59:58;14.80;99.90
32536;DHT22;18974;50.838;4.636;2024-03-22T13:02:24;14.90;99.90
32536;DHT22;18974;50.838;4.636;2024-03-22T13:04:52;15.00;99.90
32536;DHT22;18974;50.838;4.636;2024-03-22T13:07:19;15.20;99.90
32536;DHT22;18974;50.838;4.636;2024-03-22T13:09:45;15.20;99.90
32536;DHT22;18974;50.838;4.636;2024-03-22T13:12:11;15.10;99.90
32536;DHT22;18974;50.838;4.636;2024-03-22T13:14:36;15.00;99.90
32536;DHT22;18974;50.838;4.636;2024-03-22T13:17:02;14.80;99.90
32536;DHT22;18974;50.838;4.636;2024-03-22T13:19:28;14.80;99.90
32536;DHT22;18974;50.838;4.636;2024-03-22T13:21:54;14.80;99.90
32536;DHT22;18974;50.838;4.636;2024-03-22T13:24:19;14.80;99.90
32536;DHT22;18974;50.838;4.636;2024-03-22T13:26:45;14.80;99.90
32536;DHT22;18974;50.838;4.636;2024-03-22T13:29:11;14.80;99.90
32536;DHT22;18974;50.838;4.636;2024-03-22T13:31:39;14.80;99.90
32536;DHT22;18974;50.838;4.636;2024-03-22T13:34:05;14.80;99.90
32536;DHT22;18974;50.838;4.636;2024-03-22T13:36:30;14.70;99.90
32536;DHT22;18974;50.838;4.636;2024-03-22T13:38:58;14.70;99.90
32536;DHT22;18974;50.838;4.636;2024-03-22T13:41:24;14.70;99.90
32536;DHT22;18974;50.838;4.636;2024-03-22T13:43:49;14.60;99.90
32536;DHT22;18974;50.838;4.636;2024-03-22T13:46:15;14.70;99.90
32536;DHT22;18974;50.838;4.636;2024-03-22T13:48:43;14.60;99.90
32536;DHT22;18974;50.838;4.636;2024-03-22T13:51:08;14.60;99.90
32536;DHT22;18974;50.838;4.636;2024-03-22T13:53:35;14.60;99.90
32536;DHT22;18974;50.838;4.636;2024-03-22T13:56:01;14.50;99.90
32536;DHT22;18974;50.838;4.636;2024-03-22T13:58:27;14.30;99.90
32536;DHT22;18974;50.838;4.636;2024-03-22T14:00:53;14.10;99.90
32536;DHT22;18974;50.838;4.636;2024-03-22T14:03:18;14.10;99.90
32536;DHT22;18974;50.838;4.636;2024-03-22T14:05:44;14.20;99.90
32536;DHT22;18974;50.838;4.636;2024-03-22T14:08:10;14.40;99.90
32536;DHT22;18974;50.838;4.636;2024-03-22T14:10:35;14.50;99.90
32536;DHT22;18974;50.838;4.636;2024-03-22T14:13:01;14.40;99.90
32536;DHT22;18974;50.838;4.636;2024-03-22T14:15:27;14.40;99.90
32536;DHT22;18974;50.838;4.636;2024-03-22T14:17:58;14.40;99.90
32536;DHT22;18974;50.838;4.636;2024-03-22T14:20:24;14.40;99.90
32536;DHT22;18974;50.838;4.636;2024-03-22T14:22:50;14.50;99.90
32536;DHT22;18974;50.838;4.636;2024-03-22T14:25:16;14.30;99.90
32536;DHT22;18974;50.838;4.636;2024-03-22T14:27:42;14.20;99.90
32536;DHT22;18974;50.838;4.636;2024-03-22T14:30:12;14.00;99.90
32536;DHT22;18974;50.838;4.636;2024-03-22T14:32:39;13.80;99.90
32536;DHT22;18974;50.838;4.636;2024-03-22T14:35:05;13.90;99.90
32536;DHT22;18974;50.838;4.636;2024-03-22T14:37:32;14.10;99.90
32536;DHT22;18974;50.838;4.636;2024-03-22T14:39:57;14.00;99.90
32536;DHT22;18974;50.838;4.636;2024-03-22T14:42:24;13.90;99.90
32536;DHT22;18974;50.838;4.636;2024-03-22T14:44:49;13.90;99.90
32536;DHT22;18974;50.838;4.636;2024-03-22T14:47:15;13.90;99.90
32536;DHT22;18974;50.838;4.636;2024-03-22T14:49:41;13.90;99.90
32536;DHT22;18974;50.838;4.636;2024-03-22T14:52:07;13.90;99.90
32536;DHT22;18974;50.838;4.636;2024-03-22T14:54:33;13.90;99.90
32536;DHT22;18974;50.838;4.636;2024-03-22T14:56:59;14.00;99.90
32536;DHT22;18974;50.838;4.636;2024-03-22T14:59:28;14.10;99.90
32536;DHT22;18974;50.838;4.636;2024-03-22T15:01:54;14.10;99.90
32536;DHT22;18974;50.838;4.636;2024-03-22T15:04:20;14.20;99.90
32536;DHT22;18974;50.838;4.636;2024-03-22T15:06:46;14.20;99.90
32536;DHT22;18974;50.838;4.636;2024-03-22T15:09:18;14.20;99.90
32536;DHT22;18974;50.838;4.636;2024-03-22T15:11:47;14.20;99.90
32536;DHT22;18974;50.838;4.636;2024-03-22T15:14:13;14.20;99.90
32536;DHT22;18974;50.838;4.636;2024-03-22T15:16:40;14.20;99.90
32536;DHT22;18974;50.838;4.636;2024-03-22T15:19:10;14.20;99.90
32536;DHT22;18974;50.838;4.636;2024-03-22T15:21:37;14.00;99.90
32536;DHT22;18974;50.838;4.636;2024-03-22T15:24:03;13.90;99.90
32536;DHT22;18974;50.838;4.636;2024-03-22T15:26:29;13.80;99.90